createdAt,value
2022-08-31T00:06:46.485Z,38.69
2022-08-31T00:09:22.182Z,38.81
2022-08-31T00:11:50.356Z,38.49
2022-08-31T00:14:19.624Z,38.59
2022-08-31T00:16:47.876Z,38.57
2022-08-31T00:19:16.332Z,38.55
2022-08-31T00:21:45.952Z,38.86
2022-08-31T00:24:14.982Z,38.27
2022-08-31T00:26:43.206Z,38.61
2022-08-31T00:29:11.213Z,38.79
2022-08-31T00:31:39.133Z,38.62
2022-08-31T00:34:07.426Z,38.86
2022-08-31T00:36:35.589Z,38.79
2022-08-31T00:39:10.112Z,38.67
2022-08-31T00:41:39.030Z,38.63
2022-08-31T00:44:09.959Z,39.29
2022-08-31T00:46:39.739Z,39.33
2022-08-31T00:49:10.986Z,39.04
2022-08-31T00:51:40.762Z,39.39
2022-08-31T00:54:14.431Z,39.43
2022-08-31T00:56:44.850Z,39.49
2022-08-31T00:59:15.253Z,39.43
2022-08-31T01:01:44.338Z,39.58
2022-08-31T01:04:12.348Z,39.73
2022-08-31T01:06:40.770Z,39.78
2022-08-31T01:09:10.356Z,40.08
2022-08-31T01:11:38.803Z,40.21
2022-08-31T01:14:08.300Z,40.38
2022-08-31T01:16:37.954Z,40.69
2022-08-31T01:19:07.876Z,40.49
2022-08-31T01:21:39.196Z,40.51
2022-08-31T01:24:08.714Z,40.59
2022-08-31T01:26:36.728Z,40.97
2022-08-31T01:29:06.185Z,41.14
2022-08-31T01:31:35.891Z,41.16
2022-08-31T01:34:07.451Z,41.46
2022-08-31T01:36:35.896Z,42.04
2022-08-31T02:36:25.823Z,45.51
2022-08-31T02:38:53.775Z,45.88
2022-08-31T02:41:21.926Z,45.69
2022-08-31T02:43:49.992Z,45.85
2022-08-31T02:46:18.097Z,45.85
2022-08-31T02:48:46.265Z,45.96
2022-08-31T02:51:14.543Z,45.83
2022-08-31T02:53:44.024Z,46.08
2022-08-31T02:56:14.357Z,46.11
2022-08-31T02:58:42.654Z,46.10
2022-08-31T03:01:10.783Z,46.31
2022-08-31T03:03:38.985Z,46.24
2022-08-31T03:06:08.133Z,46.23
2022-08-31T03:08:36.138Z,46.16
2022-08-31T03:11:05.517Z,46.68
2022-08-31T03:13:33.495Z,46.92
2022-08-31T03:16:01.637Z,47.02
2022-08-31T03:18:29.656Z,46.85
2022-08-31T03:20:57.631Z,46.89
2022-08-31T03:23:26.002Z,47.10
2022-08-31T03:25:54.176Z,46.73
2022-08-31T03:28:23.921Z,47.31
2022-08-31T03:30:52.847Z,47.19
2022-08-31T03:33:20.958Z,47.33
2022-08-31T03:35:49.182Z,47.50
2022-08-31T04:05:35.077Z,48.40
2022-08-31T04:08:03.191Z,48.63
2022-08-31T04:10:31.145Z,48.30
2022-08-31T04:12:59.166Z,48.56
2022-08-31T04:15:27.210Z,48.62
2022-08-31T04:17:57.665Z,48.68
2022-08-31T04:20:30.107Z,48.86
2022-08-31T04:23:00.627Z,48.89
2022-08-31T04:25:29.340Z,48.83
2022-08-31T04:27:58.359Z,48.89
2022-08-31T04:30:26.738Z,48.85
2022-08-31T04:32:55.068Z,49.16
2022-08-31T04:35:23.625Z,49.08
2022-08-31T04:37:52.005Z,48.93
2022-08-31T04:40:25.965Z,48.87
2022-08-31T04:42:54.913Z,49.08
2022-08-31T04:45:24.546Z,49.07
2022-08-31T04:47:52.937Z,49.33
2022-08-31T04:50:21.383Z,49.64
2022-08-31T04:53:01.114Z,49.73
2022-08-31T04:55:33.900Z,49.71
2022-08-31T04:58:03.808Z,49.45
2022-08-31T05:00:32.446Z,49.52
2022-08-31T05:03:01.116Z,50.12
2022-08-31T05:05:29.647Z,50.11
2022-08-31T05:07:58.163Z,50.22
2022-08-31T05:12:55.228Z,50.23
2022-08-31T05:15:23.038Z,50.58
2022-08-31T05:17:51.973Z,50.57
2022-08-31T05:20:19.783Z,50.78
2022-08-31T05:22:47.750Z,50.55
2022-08-31T05:25:15.696Z,50.70
2022-08-31T05:27:43.773Z,50.98
2022-08-31T05:30:13.918Z,50.97
2022-08-31T05:32:42.080Z,50.92
2022-08-31T05:35:09.940Z,51.10
2022-08-31T05:37:37.867Z,51.07
2022-08-31T05:40:06.447Z,51.09
2022-08-31T05:42:34.438Z,51.31
2022-08-31T05:45:02.305Z,51.33
2022-08-31T05:47:31.592Z,51.16
2022-08-31T05:49:59.464Z,51.42
2022-08-31T05:52:27.657Z,51.16
2022-08-31T05:54:55.738Z,51.28
2022-08-31T05:57:26.656Z,51.24
2022-08-31T05:59:54.935Z,51.04
2022-08-31T06:02:23.083Z,51.13
2022-08-31T06:04:58.569Z,50.97
2022-08-31T06:07:26.871Z,50.97
2022-08-31T06:09:55.455Z,50.88
2022-08-31T06:12:25.657Z,50.84
2022-08-31T06:14:53.891Z,50.70
2022-08-31T06:17:21.859Z,50.34
2022-08-31T06:19:51.532Z,50.42
2022-08-31T06:22:38.588Z,49.96
2022-08-31T06:25:10.464Z,49.77
2022-08-31T06:27:50.428Z,48.64
2022-08-31T06:30:22.089Z,48.39
2022-08-31T06:32:50.161Z,47.67
2022-08-31T06:35:39.152Z,47.94
2022-08-31T06:38:11.219Z,47.78
2022-08-31T06:40:41.439Z,47.54
2022-08-31T06:43:12.575Z,47.57
2022-08-31T06:45:41.756Z,47.53
2022-08-31T06:48:09.756Z,47.31
2022-08-31T06:50:39.065Z,47.18
2022-08-31T06:53:09.746Z,47.02
2022-08-31T06:55:37.607Z,46.80
2022-08-31T06:58:05.597Z,46.39
2022-08-31T07:00:33.849Z,46.21
2022-08-31T07:03:23.017Z,45.40
2022-08-31T07:05:52.173Z,44.95
2022-08-31T07:08:21.820Z,44.40
2022-08-31T07:10:51.247Z,42.51
2022-08-31T07:13:19.644Z,41.37
2022-08-31T07:15:47.922Z,40.42
2022-08-31T07:18:16.249Z,38.66
2022-08-31T07:20:44.215Z,38.45
2022-08-31T07:23:12.200Z,37.53
2022-08-31T07:25:41.785Z,38.19
2022-08-31T07:28:11.826Z,37.42
2022-08-31T07:30:42.268Z,37.58
2022-08-31T07:33:10.921Z,37.74
2022-08-31T07:35:38.806Z,37.95
2022-08-31T07:38:24.432Z,38.48
2022-08-31T07:41:11.688Z,38.10
2022-08-31T07:43:39.558Z,37.18
2022-08-31T07:46:07.713Z,36.77
2022-08-31T07:48:36.278Z,35.82
2022-08-31T07:51:04.175Z,34.77
2022-08-31T07:53:32.287Z,33.39
2022-08-31T07:56:01.611Z,32.88
2022-08-31T07:58:29.500Z,32.26
2022-08-31T08:01:03.023Z,32.22
2022-08-31T08:03:30.922Z,31.91
2022-08-31T08:05:58.806Z,32.04
2022-08-31T08:08:29.409Z,32.34
2022-08-31T08:11:01.273Z,31.61
2022-08-31T08:13:30.057Z,31.36
2022-08-31T08:15:57.968Z,31.09
2022-08-31T08:18:28.991Z,30.16
2022-08-31T08:20:56.866Z,29.41
2022-08-31T08:23:26.861Z,28.29
2022-08-31T08:25:56.169Z,28.74
2022-08-31T08:28:46.997Z,28.01
2022-08-31T08:31:15.684Z,26.94
2022-08-31T08:33:43.855Z,27.44
2022-08-31T08:36:11.718Z,27.37
2022-08-31T08:38:42.413Z,27.19
2022-08-31T08:41:13.699Z,28.01
2022-08-31T08:43:43.901Z,27.69
2022-08-31T08:46:31.684Z,28.56
2022-08-31T08:49:03.655Z,29.28
2022-08-31T08:51:35.119Z,29.47
2022-08-31T08:54:05.715Z,29.45
2022-08-31T08:56:34.374Z,28.95
2022-08-31T08:59:02.285Z,28.84
2022-08-31T09:01:32.047Z,28.71
2022-08-31T09:04:03.939Z,28.04
2022-08-31T09:06:40.459Z,28.40
2022-08-31T09:09:24.771Z,27.74
2022-08-31T09:11:56.576Z,26.29
2022-08-31T09:14:34.179Z,25.48
2022-08-31T09:17:05.410Z,24.98
2022-08-31T09:19:53.772Z,24.23
2022-08-31T09:22:21.693Z,22.53
2022-08-31T09:24:56.143Z,21.96
2022-08-31T09:27:40.860Z,21.94
2022-08-31T09:30:10.386Z,21.87
2022-08-31T09:32:39.823Z,21.83
2022-08-31T09:35:09.193Z,22.33
2022-08-31T09:37:40.512Z,23.04
2022-08-31T09:40:15.643Z,23.37
2022-08-31T09:42:43.812Z,23.17
2022-08-31T09:45:26.858Z,23.12
2022-08-31T09:48:01.254Z,23.04
2022-08-31T09:50:35.513Z,22.17
2022-08-31T09:53:38.502Z,21.54
2022-08-31T09:56:17.785Z,21.33
2022-08-31T09:58:47.792Z,21.43
2022-08-31T10:01:20.853Z,20.32
2022-08-31T10:03:50.273Z,19.53
2022-08-31T10:06:46.586Z,19.28
2022-08-31T10:09:28.708Z,18.90
2022-08-31T10:11:59.402Z,18.95
2022-08-31T10:14:31.540Z,18.89
2022-08-31T10:17:02.783Z,18.33
2022-08-31T10:19:54.781Z,17.86
2022-08-31T10:22:29.297Z,18.29
2022-08-31T10:25:06.545Z,18.08
2022-08-31T10:27:38.480Z,17.81
2022-08-31T10:30:09.404Z,17.17
2022-08-31T10:32:38.596Z,17.48
2022-08-31T10:35:12.819Z,17.72
2022-08-31T10:37:47.209Z,17.61
2022-08-31T10:40:18.075Z,17.54
2022-08-31T10:42:50.314Z,17.30
2022-08-31T10:45:25.352Z,16.19
2022-08-31T10:47:55.631Z,15.67
2022-08-31T10:50:28.904Z,15.37
2022-08-31T10:53:02.949Z,15.10
2022-08-31T10:55:36.347Z,15.32
2022-08-31T10:58:16.155Z,15.30
2022-08-31T11:00:49.354Z,16.06
2022-08-31T11:03:20.739Z,16.81
2022-08-31T11:05:52.744Z,17.23
2022-08-31T11:08:56.193Z,17.43
2022-08-31T11:11:31.640Z,16.33
2022-08-31T11:14:29.219Z,17.13
2022-08-31T11:17:11.990Z,17.23
2022-08-31T11:20:00.061Z,18.06
2022-08-31T11:22:53.253Z,19.27
2022-08-31T11:25:30.364Z,19.56
2022-08-31T11:28:00.135Z,21.27
2022-08-31T11:30:29.982Z,21.83
2022-08-31T11:33:00.367Z,22.57
2022-08-31T11:36:03.867Z,23.23
2022-08-31T11:38:54.765Z,23.83
2022-08-31T11:41:36.953Z,24.54
2022-08-31T11:44:05.070Z,24.85
2022-08-31T11:46:50.733Z,25.05
2022-08-31T11:49:46.861Z,24.28
2022-08-31T11:52:38.865Z,25.34
2022-08-31T11:55:21.081Z,25.54
2022-08-31T11:58:27.189Z,26.42
2022-08-31T12:00:58.720Z,25.94
2022-08-31T12:03:53.877Z,26.36
2022-08-31T12:07:07.728Z,26.97
2022-08-31T12:10:13.039Z,27.57
2022-08-31T12:13:07.496Z,28.50
2022-08-31T12:15:41.102Z,28.79
2022-08-31T12:18:17.069Z,28.70
2022-08-31T12:21:12.914Z,28.60
2022-08-31T12:23:45.448Z,28.84
2022-08-31T12:26:34.426Z,28.54
2022-08-31T12:29:22.923Z,29.05
2022-08-31T12:32:23.756Z,28.83
2022-08-31T12:34:59.443Z,28.22
2022-08-31T12:37:28.897Z,28.27
2022-08-31T12:40:20.236Z,28.27
2022-08-31T12:42:57.399Z,28.77
2022-08-31T12:45:42.107Z,28.55
2022-08-31T12:48:16.028Z,28.68
2022-08-31T12:50:45.207Z,28.68
2022-08-31T12:53:29.852Z,29.03
2022-08-31T12:55:59.712Z,28.51
2022-08-31T12:58:47.152Z,28.74
2022-08-31T13:01:18.980Z,28.98
2022-08-31T13:03:54.102Z,29.16
2022-08-31T13:06:25.419Z,29.45
2022-08-31T13:08:54.221Z,29.36
2022-08-31T13:11:33.130Z,29.50
2022-08-31T13:14:13.649Z,29.36
2022-08-31T13:16:44.365Z,29.28
2022-08-31T13:19:19.273Z,29.41
2022-08-31T13:21:51.395Z,29.39
2022-08-31T13:24:25.734Z,29.70
2022-08-31T13:27:08.079Z,28.82
2022-08-31T13:29:44.087Z,29.05
2022-08-31T13:32:14.952Z,29.02
2022-08-31T13:34:43.230Z,29.42
2022-08-31T13:37:15.277Z,28.84
2022-08-31T13:39:44.856Z,28.64
2022-08-31T13:42:23.462Z,28.75
2022-08-31T13:44:54.703Z,29.53
2022-08-31T13:47:27.141Z,29.55
2022-08-31T13:49:57.428Z,29.69
2022-08-31T13:52:27.314Z,29.93
2022-08-31T13:55:01.899Z,29.79
2022-08-31T13:57:32.869Z,29.80
2022-08-31T14:00:38.139Z,29.88
2022-08-31T14:03:32.094Z,29.80
2022-08-31T14:06:24.056Z,29.79
2022-08-31T14:08:54.112Z,29.98
2022-08-31T14:11:22.167Z,30.15
2022-08-31T14:13:50.411Z,29.78
2022-08-31T14:16:21.452Z,30.02
2022-08-31T14:18:55.338Z,30.24
2022-08-31T14:21:28.919Z,30.16
2022-08-31T14:24:01.127Z,29.81
2022-08-31T14:26:31.568Z,29.89
2022-08-31T14:29:01.213Z,29.98
2022-08-31T14:31:32.763Z,29.82
2022-08-31T14:34:09.065Z,30.20
2022-08-31T14:36:52.922Z,30.45
2022-08-31T14:39:26.729Z,30.08
2022-08-31T14:41:55.361Z,29.76
2022-08-31T14:44:26.354Z,29.83
2022-08-31T14:46:54.308Z,30.13
2022-08-31T14:49:24.814Z,29.72
2022-08-31T14:51:52.668Z,30.14
2022-08-31T14:54:20.760Z,30.53
2022-08-31T14:56:50.322Z,30.19
2022-08-31T14:59:21.588Z,30.75
2022-08-31T15:04:25.203Z,30.91
2022-08-31T15:06:57.019Z,30.76
2022-08-31T15:09:24.993Z,30.70
2022-08-31T15:11:53.022Z,30.54
2022-08-31T15:14:22.335Z,30.23
2022-08-31T15:16:52.205Z,30.41
2022-08-31T15:19:20.110Z,30.43
2022-08-31T15:21:58.707Z,30.61
2022-08-31T15:24:31.103Z,29.83
2022-08-31T15:27:00.049Z,29.71
2022-08-31T15:29:30.503Z,29.41
2022-08-31T15:31:58.972Z,29.33
2022-08-31T15:34:30.285Z,29.58
2022-08-31T15:37:02.148Z,29.40
2022-08-31T15:39:35.811Z,29.18
2022-08-31T15:42:09.175Z,29.34
2022-08-31T15:44:37.365Z,29.21
2022-08-31T15:47:23.220Z,29.53
2022-08-31T15:49:51.165Z,29.95
2022-08-31T15:52:20.709Z,29.58
2022-08-31T15:54:50.530Z,29.34
2022-08-31T15:57:19.092Z,29.94
2022-08-31T15:59:47.399Z,29.65
2022-08-31T16:02:20.507Z,29.24
2022-08-31T16:04:50.816Z,29.92
2022-08-31T16:07:22.775Z,29.63
2022-08-31T16:09:50.874Z,29.72
2022-08-31T16:12:20.181Z,29.02
2022-08-31T16:14:51.673Z,28.89
2022-08-31T16:17:26.045Z,28.95
2022-08-31T16:19:54.246Z,28.88
2022-08-31T16:22:25.741Z,28.99
2022-08-31T16:24:59.091Z,29.40
2022-08-31T16:27:27.081Z,29.45
2022-08-31T16:29:57.481Z,29.67
2022-08-31T16:32:27.849Z,29.74
2022-08-31T16:34:56.789Z,29.35
2022-08-31T16:37:26.261Z,29.38
2022-08-31T16:39:54.449Z,29.41
2022-08-31T16:42:22.468Z,29.36
2022-08-31T16:44:50.751Z,30.19
2022-08-31T16:47:19.188Z,30.08
2022-08-31T16:49:46.959Z,30.21
2022-08-31T16:52:19.189Z,30.01
2022-08-31T16:54:51.178Z,29.83
2022-08-31T16:57:24.265Z,30.03
2022-08-31T16:59:52.473Z,29.97
2022-08-31T17:02:20.903Z,30.75
2022-08-31T17:04:52.511Z,30.17
2022-08-31T17:07:21.902Z,30.29
2022-08-31T17:09:51.449Z,30.17
2022-08-31T17:12:21.780Z,30.79
2022-08-31T17:14:52.828Z,30.36
2022-08-31T17:17:22.148Z,30.69
2022-08-31T17:19:50.306Z,30.86
2022-08-31T17:22:28.358Z,31.09
2022-08-31T17:25:03.212Z,31.01
2022-08-31T17:27:32.431Z,31.33
2022-08-31T17:30:01.197Z,30.80
2022-08-31T17:32:29.627Z,31.67
2022-08-31T17:34:57.811Z,31.73
2022-08-31T17:37:27.907Z,31.88
2022-08-31T17:39:56.498Z,31.67
2022-08-31T17:42:28.179Z,31.96
2022-08-31T17:44:56.534Z,32.04
2022-08-31T17:47:25.691Z,32.22
2022-08-31T17:49:54.313Z,32.23
2022-08-31T17:52:23.820Z,32.38
2022-08-31T17:54:52.430Z,32.77
2022-08-31T17:57:22.428Z,32.50
2022-08-31T17:59:51.940Z,32.64
2022-08-31T18:02:21.478Z,32.67
2022-08-31T18:04:49.747Z,32.79
2022-08-31T18:07:18.251Z,33.02
2022-08-31T18:09:47.180Z,33.21
2022-08-31T18:12:15.619Z,33.24
2022-08-31T18:14:43.738Z,33.28
2022-08-31T18:17:16.402Z,33.68
2022-08-31T18:19:44.978Z,33.71
2022-08-31T18:22:14.651Z,33.71
2022-08-31T18:24:43.085Z,33.69
2022-08-31T18:27:12.014Z,33.77
2022-08-31T18:29:40.223Z,33.91
2022-08-31T18:32:08.586Z,34.11
2022-08-31T18:34:40.243Z,34.20
2022-08-31T18:37:09.511Z,34.27
2022-08-31T18:40:00.150Z,34.29
2022-08-31T18:42:46.285Z,34.23
2022-08-31T18:45:18.806Z,33.94
2022-08-31T18:48:07.119Z,34.28
2022-08-31T18:50:38.708Z,34.27
2022-08-31T18:53:08.177Z,34.54
2022-08-31T18:55:41.198Z,34.47
2022-08-31T18:58:09.656Z,34.90
2022-08-31T19:00:37.956Z,34.90
2022-08-31T19:03:06.939Z,35.00
2022-08-31T19:05:35.981Z,34.85
2022-08-31T19:08:06.257Z,35.06
2022-08-31T19:10:34.918Z,34.98
2022-08-31T19:13:07.345Z,35.21
2022-08-31T19:15:39.748Z,34.85
2022-08-31T19:18:08.067Z,35.49
2022-08-31T19:20:36.802Z,35.41
2022-08-31T19:23:06.366Z,35.40
2022-08-31T19:25:34.479Z,35.39
2022-08-31T19:28:06.996Z,35.52
2022-08-31T19:30:35.390Z,35.28
2022-08-31T19:33:07.955Z,35.41
2022-08-31T19:35:36.634Z,35.73
2022-08-31T19:38:06.955Z,35.65
2022-08-31T19:40:38.967Z,35.43
2022-08-31T19:46:09.398Z,35.50
2022-08-31T19:48:46.189Z,35.94
2022-08-31T19:51:15.447Z,35.97
2022-08-31T19:53:45.485Z,35.73
2022-08-31T19:56:16.558Z,36.16
2022-08-31T19:58:47.121Z,35.87
2022-08-31T20:01:15.272Z,36.27
2022-08-31T20:03:43.328Z,35.70
2022-08-31T20:06:13.581Z,36.18
2022-08-31T20:08:41.762Z,36.09
2022-08-31T20:11:11.819Z,36.34
2022-08-31T20:13:40.588Z,36.08
2022-08-31T20:16:08.914Z,35.72
2022-08-31T20:18:38.529Z,36.13
2022-08-31T20:21:17.490Z,35.82
2022-08-31T20:23:45.570Z,35.85
2022-08-31T20:26:14.991Z,35.92
2022-08-31T20:28:43.081Z,36.14
2022-08-31T20:31:11.949Z,36.35
2022-08-31T20:33:40.169Z,35.60
2022-08-31T20:36:18.515Z,36.08
2022-08-31T20:38:46.800Z,36.34
2022-08-31T20:41:16.413Z,36.30
2022-08-31T20:43:44.777Z,36.25
2022-08-31T20:46:33.535Z,36.22
2022-08-31T20:49:19.156Z,36.15
2022-08-31T20:51:47.435Z,36.14
2022-08-31T20:54:15.396Z,36.31
2022-08-31T20:56:44.706Z,36.21
2022-08-31T20:59:12.672Z,36.54
2022-08-31T21:04:15.690Z,37.09
2022-08-31T21:06:45.548Z,36.87
2022-08-31T21:09:13.551Z,37.55
2022-08-31T21:11:43.619Z,37.58
2022-08-31T21:14:12.919Z,37.53
2022-08-31T21:16:41.486Z,37.22
2022-08-31T21:19:12.447Z,37.61
2022-08-31T21:21:41.207Z,37.52
2022-08-31T21:24:11.524Z,37.96
2022-08-31T21:26:41.075Z,38.02
2022-08-31T21:29:10.546Z,37.87
2022-08-31T21:31:43.680Z,38.21
2022-08-31T21:34:18.032Z,37.76
2022-08-31T21:36:46.320Z,37.98
2022-08-31T21:39:16.037Z,38.23
2022-08-31T21:41:44.296Z,38.53
2022-08-31T21:44:12.924Z,38.67
2022-08-31T21:46:44.805Z,38.66
2022-08-31T21:49:15.022Z,38.56
2022-08-31T21:51:45.636Z,38.95
2022-08-31T21:54:14.235Z,38.98
2022-08-31T21:56:44.888Z,39.13
2022-08-31T21:59:13.189Z,39.12
2022-08-31T22:01:42.804Z,39.29
2022-08-31T22:04:10.942Z,39.18
2022-08-31T22:06:42.715Z,39.76
2022-08-31T22:09:11.973Z,39.73
2022-08-31T22:11:41.612Z,39.91
2022-08-31T22:14:11.134Z,39.92
2022-08-31T22:16:39.534Z,39.83
2022-08-31T22:19:12.152Z,40.03
2022-08-31T22:21:42.101Z,40.00
2022-08-31T22:24:11.973Z,40.17
2022-08-31T22:26:54.684Z,40.04
2022-08-31T22:29:23.826Z,40.09
2022-08-31T22:31:51.992Z,40.23
2022-08-31T22:34:21.558Z,40.05
2022-08-31T22:36:51.028Z,40.32
2022-08-31T22:39:20.637Z,40.21
2022-08-31T22:41:48.723Z,40.28
2022-08-31T22:44:18.013Z,40.28
2022-08-31T22:46:46.286Z,40.27
2022-08-31T22:49:15.015Z,40.30
2022-08-31T22:51:48.368Z,40.39
2022-08-31T22:54:17.475Z,40.46
2022-08-31T22:56:45.627Z,40.24
2022-08-31T22:59:14.610Z,40.17
2022-08-31T23:01:44.218Z,40.36
2022-08-31T23:04:14.692Z,40.15
2022-08-31T23:06:44.184Z,40.35
2022-08-31T23:09:12.260Z,40.29
2022-08-31T23:11:40.802Z,39.96
2022-08-31T23:14:10.310Z,40.44
2022-08-31T23:16:39.850Z,40.23
2022-08-31T23:19:11.335Z,40.52
2022-08-31T23:21:43.145Z,40.50
2022-08-31T23:24:12.622Z,40.03
2022-08-31T23:26:40.796Z,40.44
2022-08-31T23:29:10.022Z,40.49
2022-08-31T23:31:38.726Z,40.52
2022-08-31T23:34:09.737Z,40.47
2022-08-31T23:36:38.359Z,41.14
2022-08-31T23:39:07.452Z,40.93
2022-08-31T23:41:38.998Z,41.15
2022-08-31T23:47:53.491Z,41.18
2022-08-31T23:50:21.211Z,41.06
2022-08-31T23:52:52.223Z,41.30
2022-08-31T23:55:21.822Z,41.39
2022-08-31T23:57:51.619Z,41.48
